Latest Weather Observations for South Channel Island

IDV60801

Issued at 11:32 am EST Tuesday 22 August 2017 (issued every 30 minutes, with the page automatically refreshed every 10 minutes)

About weather observations | Map of weather stations | Latest weather observations for VIC | Other Formats
Station Details ID: 086344 Name: SOUTH CHANNEL ISLAND Lat: -38.31 Lon: 144.80 Height: 9.0 m
Data from the previous 72 hours. | See also: Recent months for locations in Victoria
Date/Time
EST
Temp
°C
App
Temp
°C
Dew
Point
°C
Rel
Hum
%
Delta-T
°C
Wind Press
QNH
hPa
Press
MSL
hPa
Rain since
9am
mm
Dir  Spd
km/h
Gust
km/h
Spd
kts
Gust
kts
22/11:30am - - - - - N 15 17 8 9 - - -
22/11:00am - - - - - N 19 20 10 11 - - -
22/10:30am - - - - - N 20 24 11 13 - - -
22/10:00am - - - - - N 24 28 13 15 - - -
22/09:30am - - - - - N 24 28 13 15 - - -
22/09:00am - - - - - N 28 30 15 16 - - -
22/08:30am - - - - - N 22 26 12 14 - - -
22/08:00am - - - - - N 19 20 10 11 - - -
22/07:30am - - - - - NNW 11 13 6 7 - - -
22/07:00am - - - - - NNW 11 11 6 6 - - -
22/06:30am - - - - - NW 15 17 8 9 - - -
22/06:00am - - - - - NW 15 17 8 9 - - -
22/05:30am - - - - - NW 15 17 8 9 - - -
22/05:00am - - - - - NW 17 19 9 10 - - -
22/04:30am - - - - - NNW 20 24 11 13 - - -
22/04:00am - - - - - NNW 22 26 12 14 - - -
22/03:30am - - - - - NNW 26 28 14 15 - - -
22/03:00am - - - - - NNW 24 26 13 14 - - -
22/02:30am - - - - - NNW 19 22 10 12 - - -
22/02:00am - - - - - NNW 17 19 9 10 - - -
22/01:30am - - - - - NNW 17 19 9 10 - - -
22/01:00am - - - - - N 19 20 10 11 - - -
22/12:30am - - - - - NNW 19 22 10 12 - - -
22/12:00am - - - - - NNW 20 22 11 12 - - -
 
Date/Time
EST
Temp
°C
App
Temp
°C
Dew
Point
°C
Rel
Hum
%
Delta-T
°C
Wind Press
QNH
hPa
Press
MSL
hPa
Rain since
9am
mm
Dir  Spd
km/h
Gust
km/h
Spd
kts
Gust
kts
21/11:30pm - - - - - NNW 22 28 12 15 - - -
21/11:00pm - - - - - N 24 28 13 15 - - -
21/10:30pm - - - - - N 24 30 13 16 - - -
21/10:00pm - - - - - NNE 24 28 13 15 - - -
21/09:30pm - - - - - NE 22 28 12 15 - - -
21/09:00pm - - - - - NE 22 28 12 15 - - -
21/08:30pm - - - - - ENE 17 19 9 10 - - -
21/08:00pm - - - - - ENE 19 20 10 11 - - -
21/07:30pm - - - - - ENE 17 19 9 10 - - -
21/07:00pm - - - - - ENE 17 20 9 11 - - -
21/06:30pm - - - - - ENE 20 24 11 13 - - -
21/06:00pm - - - - - ENE 17 19 9 10 - - -
21/05:30pm - - - - - NE 19 20 10 11 - - -
21/05:00pm - - - - - NE 19 20 10 11 - - -
21/04:30pm - - - - - NE 24 26 13 14 - - -
21/04:00pm - - - - - NE 28 30 15 16 - - -
21/03:30pm - - - - - NE 26 30 14 16 - - -
21/03:00pm - - - - - NNE 26 30 14 16 - - -
21/02:30pm - - - - - NNE 22 28 12 15 - - -
21/02:00pm - - - - - N 20 26 11 14 - - -
21/01:30pm - - - - - NNE 20 26 11 14 - - -
21/01:00pm - - - - - NNE 26 28 14 15 - - -
21/12:30pm - - - - - N 28 32 15 17 - - -
21/12:00pm - - - - - N 28 32 15 17 - - -
21/11:30am - - - - - NNE 32 37 17 20 - - -
21/11:00am - - - - - N 33 39 18 21 - - -
21/10:30am - - - - - N 33 39 18 21 - - -
21/10:00am - - - - - N 35 41 19 22 - - -
21/09:30am - - - - - N 41 50 22 27 - - -
21/09:00am - - - - - N 35 44 19 24 - - -
21/08:30am - - - - - N 35 43 19 23 - - -
21/08:00am - - - - - N 35 41 19 22 - - -
21/07:30am - - - - - N 37 48 20 26 - - -
21/07:00am - - - - - N 30 35 16 19 - - -
21/06:30am - - - - - N 30 33 16 18 - - -
21/06:00am - - - - - N 30 35 16 19 - - -
21/05:30am - - - - - N 30 33 16 18 - - -
21/05:00am - - - - - N 33 41 18 22 - - -
21/04:30am - - - - - N 35 41 19 22 - - -
21/04:00am - - - - - N 35 43 19 23 - - -
21/03:30am - - - - - N 30 33 16 18 - - -
21/03:00am - - - - - N 24 28 13 15 - - -
21/02:30am - - - - - N 26 30 14 16 - - -
21/02:00am - - - - - N 24 28 13 15 - - -
21/01:30am - - - - - N 26 30 14 16 - - -
21/01:00am - - - - - NNE 20 24 11 13 - - -
21/12:30am - - - - - NE 24 28 13 15 - - -
21/12:00am - - - - - NE 22 28 12 15 - - -
 
Date/Time
EST
Temp
°C
App
Temp
°C
Dew
Point
°C
Rel
Hum
%
Delta-T
°C
Wind Press
QNH
hPa
Press
MSL
hPa
Rain since
9am
mm
Dir  Spd
km/h
Gust
km/h
Spd
kts
Gust
kts
20/11:30pm - - - - - NE 26 32 14 17 - - -
20/11:00pm - - - - - ENE 24 26 13 14 - - -
20/10:30pm - - - - - ENE 24 28 13 15 - - -
20/10:00pm - - - - - E 24 28 13 15 - - -
20/09:30pm - - - - - E 24 28 13 15 - - -
20/09:00pm - - - - - E 17 26 9 14 - - -
20/08:30pm - - - - - ESE 17 20 9 11 - - -
20/08:00pm - - - - - ESE 17 20 9 11 - - -
20/07:30pm - - - - - ESE 17 19 9 10 - - -
20/07:00pm - - - - - ESE 19 20 10 11 - - -
20/06:30pm - - - - - ESE 13 15 7 8 - - -
20/06:00pm - - - - - ESE 11 13 6 7 - - -
20/05:30pm - - - - - ENE 7 9 4 5 - - -
20/05:00pm - - - - - ENE 9 11 5 6 - - -
20/04:30pm - - - - - NNE 11 13 6 7 - - -
20/04:00pm - - - - - NNE 13 15 7 8 - - -
20/03:30pm - - - - - NNE 15 17 8 9 - - -
20/03:00pm - - - - - N 15 17 8 9 - - -
20/02:30pm - - - - - N 15 17 8 9 - - -
20/02:00pm - - - - - N 17 17 9 9 - - -
20/01:30pm - - - - - N 17 20 9 11 - - -
20/01:00pm - - - - - N 17 19 9 10 - - -
20/12:30pm - - - - - N 17 20 9 11 - - -
20/12:00pm - - - - - N 15 19 8 10 - - -
20/11:30am - - - - - N 13 19 7 10 - - -
20/11:00am - - - - - NNW 13 17 7 9 - - -
20/10:30am - - - - - WNW 19 20 10 11 - - -
20/10:00am - - - - - WNW 24 26 13 14 - - -
20/09:30am - - - - - WNW 24 26 13 14 - - -
20/09:00am - - - - - WNW 24 26 13 14 - - -
20/08:30am - - - - - WNW 26 28 14 15 - - -
20/08:00am - - - - - WNW 26 28 14 15 - - -
20/07:30am - - - - - WNW 24 26 13 14 - - -
20/07:00am - - - - - WNW 20 24 11 13 - - -
20/06:30am - - - - - WNW 20 24 11 13 - - -
20/06:00am - - - - - WNW 20 26 11 14 - - -
20/05:30am - - - - - WNW 24 26 13 14 - - -
20/05:00am - - - - - WNW 24 28 13 15 - - -
20/04:30am - - - - - WNW 17 20 9 11 - - -
20/04:00am - - - - - WNW 17 20 9 11 - - -
20/03:30am - - - - - WNW 20 26 11 14 - - -
20/03:00am - - - - - WNW 22 26 12 14 - - -
20/02:30am - - - - - WNW 15 17 8 9 - - -
20/02:00am - - - - - WNW 19 22 10 12 - - -
20/01:30am - - - - - NNW 13 19 7 10 - - -
20/01:00am - - - - - WNW 20 24 11 13 - - -
20/12:30am - - - - - WNW 24 28 13 15 - - -
20/12:00am - - - - - W 15 22 8 12 - - -
 
Date/Time
EST
Temp
°C
App
Temp
°C
Dew
Point
°C
Rel
Hum
%
Delta-T
°C
Wind Press
QNH
hPa
Press
MSL
hPa
Rain since
9am
mm
Dir  Spd
km/h
Gust
km/h
Spd
kts
Gust
kts
19/11:30pm - - - - - WSW 13 13 7 7 - - -
19/11:00pm - - - - - SW 13 15 7 8 - - -
19/10:30pm - - - - - SSW 15 17 8 9 - - -
19/10:00pm - - - - - SSW 26 32 14 17 - - -
19/09:30pm - - - - - WSW 19 24 10 13 - - -
19/09:00pm - - - - - SW 28 33 15 18 - - -
19/08:30pm - - - - - SSW 15 20 8 11 - - -
19/08:00pm - - - - - SSW 19 20 10 11 - - -
19/07:48pm - - - - - SSW 28 46 15 25 - - -
19/07:30pm - - - - - SSW 28 32 15 17 - - -
19/07:00pm - - - - - SSW 26 30 14 16 - - -
19/06:30pm - - - - - SW 26 32 14 17 - - -
19/06:00pm - - - - - SSW 24 30 13 16 - - -
19/05:30pm - - - - - SW 26 33 14 18 - - -
19/05:00pm - - - - - SW 22 28 12 15 - - -
19/04:30pm - - - - - SW 26 32 14 17 - - -
19/04:00pm - - - - - SW 26 32 14 17 - - -
19/03:30pm - - - - - SSW 26 28 14 15 - - -
19/03:00pm - - - - - SW 26 33 14 18 - - -
19/02:30pm - - - - - SSW 26 32 14 17 - - -
19/02:00pm - - - - - S 20 24 11 13 - - -
19/01:30pm - - - - - SSW 26 33 14 18 - - -
19/01:00pm - - - - - SSW 22 30 12 16 - - -
19/12:30pm - - - - - S 19 28 10 15 - - -
19/12:00pm - - - - - S 30 33 16 18 - - -

Other Formats:

Comma delimited format used in spreadsheet applications
http://www.bom.gov.au/fwo/IDV60801/IDV60801.94853.axf

JavaScript Object Notation format (JSON) in row-major order
http://www.bom.gov.au/fwo/IDV60801/IDV60801.94853.json